Time;durP1;ratioP1;P1;durP2;ratioP2;P2;SDS_P1;SDS_P2;PMS_P1;PMS_P2;Temp;Humidity;BMP_temperature;BMP_pressure;BME280_temperature;BME280_humidity;BME280_pressure;Samples;Min_cycle;Max_cycle;Signal;HPM_P1;HPM_P2
2021/08/18 00:00:12;;;;;;;4.57;2.10;;;;;;;;;;5026775;28;20128;-63
2021/08/18 00:02:38;;;;;;;2.70;2.30;;;;;;;;;;5025680;28;20444;-63
2021/08/18 00:05:07;;;;;;;8.60;2.50;;;;;;;;;;5023432;28;20050;-63
2021/08/18 00:07:33;;;;;;;9.15;2.40;;;;;;;;;;5025212;28;20132;-63
2021/08/18 00:10:00;;;;;;;3.50;2.30;;;;;;;;;;5025655;28;20130;-63
2021/08/18 00:12:26;;;;;;;6.07;2.22;;;;;;;;;;5022035;28;20072;-63
2021/08/18 00:14:53;;;;;;;4.93;2.72;;;;;;;;;;5027679;28;20045;-63
2021/08/18 00:17:20;;;;;;;4.00;2.20;;;;;;;;;;5024622;28;20073;-63
2021/08/18 00:19:46;;;;;;;4.93;2.35;;;;;;;;;;5023456;28;20481;-63
2021/08/18 00:22:13;;;;;;;4.43;2.70;;;;;;;;;;5024945;28;20602;-63
2021/08/18 00:24:39;;;;;;;5.15;2.60;;;;;;;;;;5029200;28;20132;-63
2021/08/18 00:27:06;;;;;;;4.30;2.40;;;;;;;;;;5019642;28;20077;-63
2021/08/18 00:29:40;;;;;;;5.35;3.05;;;;;;;;;;5017767;28;20057;-63
2021/08/18 00:32:07;;;;;;;2.85;2.53;;;;;;;;;;5024012;28;20049;-63
2021/08/18 00:34:34;;;;;;;6.72;3.20;;;;;;;;;;5026231;28;20140;-63
2021/08/18 00:37:00;;;;;;;5.82;2.92;;;;;;;;;;5024321;28;20073;-63
2021/08/18 00:39:27;;;;;;;7.07;3.05;;;;;;;;;;5026537;28;20103;-63
2021/08/18 00:41:54;;;;;;;7.82;2.92;;;;;;;;;;5023412;28;20049;-63
2021/08/18 00:44:21;;;;;;;5.25;3.05;;;;;;;;;;5025743;28;20084;-63
2021/08/18 00:46:51;;;;;;;9.27;3.05;;;;;;;;;;5019776;28;20179;-63
2021/08/18 00:49:18;;;;;;;4.85;3.00;;;;;;;;;;5023133;28;20139;-63
2021/08/18 00:51:46;;;;;;;11.35;3.60;;;;;;;;;;5024660;28;20045;-63
2021/08/18 00:54:14;;;;;;;6.80;3.20;;;;;;;;;;5022221;28;20509;-63
2021/08/18 00:56:40;;;;;;;;;;;;;;;;;;5022242;28;20640;-65
2021/08/18 00:59:08;;;;;;;5.45;3.25;;;;;;;;;;5020330;28;20386;-63
2021/08/18 01:01:35;;;;;;;7.18;3.10;;;;;;;;;;5023724;28;20577;-64
2021/08/18 01:04:02;;;;;;;6.18;3.05;;;;;;;;;;5020532;28;20073;-63
2021/08/18 01:06:28;;;;;;;4.10;3.30;;;;;;;;;;5025608;28;20076;-63
2021/08/18 01:08:58;;;;;;;7.95;3.72;;;;;;;;;;5024701;28;20041;-63
2021/08/18 01:11:28;;;;;;;8.05;3.55;;;;;;;;;;5016945;28;20129;-63
2021/08/18 01:13:54;;;;;;;6.80;3.20;;;;;;;;;;5021832;28;20128;-63
2021/08/18 01:16:21;;;;;;;6.70;3.45;;;;;;;;;;5019378;28;20081;-63
2021/08/18 01:18:48;;;;;;;8.60;3.73;;;;;;;;;;5027636;28;20041;-63
2021/08/18 01:21:14;;;;;;;7.00;3.58;;;;;;;;;;5024708;28;20375;-63
2021/08/18 01:23:41;;;;;;;8.25;4.00;;;;;;;;;;5025207;28;20140;-63
2021/08/18 01:26:08;;;;;;;5.15;3.50;;;;;;;;;;5020959;28;20050;-63
2021/08/18 01:28:34;;;;;;;4.38;3.67;;;;;;;;;;5020305;28;20081;-64
2021/08/18 01:31:01;;;;;;;6.25;4.15;;;;;;;;;;5022148;28;20142;-62
2021/08/18 01:33:28;;;;;;;5.82;3.95;;;;;;;;;;5023974;28;20060;-63
2021/08/18 01:35:55;;;;;;;5.63;3.35;;;;;;;;;;5026765;28;20490;-63
2021/08/18 01:38:21;;;;;;;4.18;3.42;;;;;;;;;;5019565;28;20077;-63
2021/08/18 01:40:51;;;;;;;7.95;3.67;;;;;;;;;;5025226;28;20560;-63
2021/08/18 01:43:22;;;;;;;8.43;3.60;;;;;;;;;;5017935;28;20081;-63
2021/08/18 01:45:49;;;;;;;4.78;3.40;;;;;;;;;;5021534;28;20125;-63
2021/08/18 01:48:20;;;;;;;6.00;3.58;;;;;;;;;;5018275;28;20052;-63
2021/08/18 01:50:48;;;;;;;7.05;3.70;;;;;;;;;;5024437;28;20465;-63
2021/08/18 01:53:16;;;;;;;4.30;3.33;;;;;;;;;;5022190;28;20409;-63
2021/08/18 01:55:43;;;;;;;5.18;3.20;;;;;;;;;;5022550;28;20053;-63
2021/08/18 01:58:09;;;;;;;7.35;3.53;;;;;;;;;;5020818;28;20591;-63
2021/08/18 02:00:37;;;;;;;11.40;4.00;;;;;;;;;;5018783;28;20049;-63
2021/08/18 02:03:03;;;;;;;7.85;3.40;;;;;;;;;;5023593;28;20504;-63
2021/08/18 02:05:30;;;;;;;9.93;3.97;;;;;;;;;;5021613;28;20069;-63
2021/08/18 02:07:57;;;;;;;10.00;3.75;;;;;;;;;;5021225;28;20558;-63
2021/08/18 02:10:23;;;;;;;9.88;4.03;;;;;;;;;;5020037;28;20092;-63
2021/08/18 02:12:50;;;;;;;12.33;4.30;;;;;;;;;;5021897;28;20046;-63
2021/08/18 02:15:19;;;;;;;5.95;3.83;;;;;;;;;;5020280;28;20049;-63
2021/08/18 02:17:45;;;;;;;5.25;3.72;;;;;;;;;;5021749;28;20136;-63
2021/08/18 02:20:13;;;;;;;10.95;3.67;;;;;;;;;;5018724;28;20136;-63
2021/08/18 02:22:41;;;;;;;6.35;3.88;;;;;;;;;;5019141;28;20140;-63
2021/08/18 02:25:08;;;;;;;4.18;3.30;;;;;;;;;;5019838;28;20129;-63
2021/08/18 02:27:34;;;;;;;7.45;4.10;;;;;;;;;;5023223;28;20129;-63
2021/08/18 02:30:01;;;;;;;8.33;4.03;;;;;;;;;;5022974;28;20076;-63
2021/08/18 02:32:28;;;;;;;4.70;3.53;;;;;;;;;;5018922;28;20355;-63
2021/08/18 02:34:54;;;;;;;8.18;4.22;;;;;;;;;;5004042;28;20136;-63
2021/08/18 02:37:21;;;;;;;7.30;4.13;;;;;;;;;;5021776;28;20121;-63
2021/08/18 02:39:47;;;;;;;6.57;4.15;;;;;;;;;;5024539;28;20050;-63
2021/08/18 02:42:14;;;;;;;8.13;3.72;;;;;;;;;;5023302;28;20136;-63
2021/08/18 02:44:42;;;;;;;5.23;3.97;;;;;;;;;;5021304;28;20149;-63
2021/08/18 02:47:08;;;;;;;;;;;;;;;;;;5020798;28;20136;-63
2021/08/18 02:49:35;;;;;;;8.50;4.25;;;;;;;;;;5019561;28;19975;-63
2021/08/18 02:52:02;;;;;;;8.63;3.92;;;;;;;;;;5008682;28;20148;-63
2021/08/18 02:54:28;;;;;;;10.27;3.95;;;;;;;;;;5027107;28;20099;-63
2021/08/18 02:56:55;;;;;;;5.38;4.00;;;;;;;;;;5025890;28;20140;-63
2021/08/18 02:59:21;;;;;;;7.47;4.18;;;;;;;;;;5022022;28;20073;-63
2021/08/18 03:01:51;;;;;;;4.50;3.65;;;;;;;;;;5029878;28;20136;-63
2021/08/18 03:04:18;;;;;;;5.75;4.07;;;;;;;;;;5024990;28;20049;-63
2021/08/18 03:06:44;;;;;;;11.10;4.00;;;;;;;;;;5022851;28;20499;-63
2021/08/18 03:09:11;;;;;;;5.57;4.28;;;;;;;;;;5024485;28;20847;-63
2021/08/18 03:11:37;;;;;;;10.93;4.60;;;;;;;;;;5026969;28;20520;-63
2021/08/18 03:14:04;;;;;;;8.80;4.80;;;;;;;;;;5020748;28;20141;-63
2021/08/18 03:16:30;;;;;;;15.35;4.32;;;;;;;;;;5027048;28;20124;-63
2021/08/18 03:18:57;;;;;;;5.37;4.47;;;;;;;;;;5022415;28;20448;-63
2021/08/18 03:21:24;;;;;;;9.30;3.90;;;;;;;;;;5024405;28;20592;-63
2021/08/18 03:23:50;;;;;;;5.80;4.50;;;;;;;;;;5026434;28;20569;-63
2021/08/18 03:26:18;;;;;;;6.05;4.40;;;;;;;;;;5025414;28;20041;-63
2021/08/18 03:28:45;;;;;;;10.75;5.03;;;;;;;;;;5027177;28;20081;-63
2021/08/18 03:31:12;;;;;;;9.80;4.72;;;;;;;;;;5025225;28;20073;-63
2021/08/18 03:33:38;;;;;;;14.40;5.90;;;;;;;;;;5025409;28;20049;-63
2021/08/18 03:36:05;;;;;;;14.23;5.20;;;;;;;;;;5027908;28;20501;-63
2021/08/18 03:38:31;;;;;;;9.73;4.95;;;;;;;;;;5023105;28;20085;-63
2021/08/18 03:40:58;;;;;;;9.77;5.35;;;;;;;;;;5027219;28;20081;-64
2021/08/18 03:43:25;;;;;;;15.43;5.47;;;;;;;;;;5023586;28;20054;-63
2021/08/18 03:45:54;;;;;;;11.13;5.45;;;;;;;;;;5024579;28;20136;-63
2021/08/18 03:48:21;;;;;;;11.45;4.43;;;;;;;;;;5027019;28;20115;-63
2021/08/18 03:50:48;;;;;;;8.55;4.90;;;;;;;;;;5025597;28;20077;-63
2021/08/18 03:53:15;;;;;;;8.13;4.05;;;;;;;;;;5027683;28;20045;-63
2021/08/18 03:55:42;;;;;;;7.82;4.70;;;;;;;;;;5023759;28;20080;-63
2021/08/18 03:58:08;;;;;;;7.22;4.40;;;;;;;;;;5025490;28;20085;-63
2021/08/18 04:00:35;;;;;;;9.30;4.30;;;;;;;;;;5022700;28;20136;-63
2021/08/18 04:03:01;;;;;;;13.48;5.10;;;;;;;;;;5027917;28;20088;-63
2021/08/18 04:05:29;;;;;;;;;;;;;;;;;;5026328;28;20506;-63
2021/08/18 04:07:55;;;;;;;6.93;4.43;;;;;;;;;;5026877;28;20128;-63
2021/08/18 04:10:22;;;;;;;8.30;4.97;;;;;;;;;;5027458;28;20084;-63
2021/08/18 04:12:49;;;;;;;7.90;4.17;;;;;;;;;;5026492;28;20077;-64
2021/08/18 04:15:16;;;;;;;12.15;5.57;;;;;;;;;;5028749;28;20145;-64
2021/08/18 04:17:43;;;;;;;11.18;5.00;;;;;;;;;;5025184;28;20073;-64
2021/08/18 04:20:10;;;;;;;6.45;4.70;;;;;;;;;;5026350;28;20132;-64
2021/08/18 04:22:37;;;;;;;5.93;4.40;;;;;;;;;;5025151;28;20091;-64
2021/08/18 04:25:04;;;;;;;11.07;3.78;;;;;;;;;;5023406;28;20132;-64
2021/08/18 04:27:37;;;;;;;7.13;3.67;;;;;;;;;;5021837;28;20128;-64
2021/08/18 04:30:05;;;;;;;9.02;3.60;;;;;;;;;;5024200;28;20204;-63
2021/08/18 04:32:31;;;;;;;4.00;3.00;;;;;;;;;;5019244;28;20692;-64
2021/08/18 04:34:58;;;;;;;6.65;3.05;;;;;;;;;;5025055;28;20128;-64
2021/08/18 04:37:24;;;;;;;4.03;2.78;;;;;;;;;;5024370;28;20141;-64
2021/08/18 04:39:50;;;;;;;5.63;3.00;;;;;;;;;;5023029;28;20128;-64
2021/08/18 04:42:17;;;;;;;9.80;2.88;;;;;;;;;;5021288;28;20137;-64
2021/08/18 04:44:44;;;;;;;5.15;3.08;;;;;;;;;;5021356;28;20100;-64
2021/08/18 04:47:10;;;;;;;6.60;3.30;;;;;;;;;;5022307;28;20193;-64
2021/08/18 04:49:38;;;;;;;9.40;3.78;;;;;;;;;;5021467;28;20049;-64
2021/08/18 04:52:04;;;;;;;8.88;3.60;;;;;;;;;;5023546;28;20088;-64
2021/08/18 04:54:31;;;;;;;5.47;3.55;;;;;;;;;;5023117;28;20160;-64
2021/08/18 04:56:58;;;;;;;7.15;3.20;;;;;;;;;;5024744;28;20466;-63
2021/08/18 04:59:24;;;;;;;6.00;3.13;;;;;;;;;;5018758;28;20073;-63
2021/08/18 05:01:51;;;;;;;4.50;3.30;;;;;;;;;;5016404;28;20568;-64
2021/08/18 05:04:18;;;;;;;5.22;3.35;;;;;;;;;;5019585;28;20054;-64
2021/08/18 05:06:44;;;;;;;8.68;3.53;;;;;;;;;;5025899;28;20160;-63
2021/08/18 05:09:11;;;;;;;5.53;2.95;;;;;;;;;;5024359;28;20085;-64
2021/08/18 05:11:38;;;;;;;5.13;3.13;;;;;;;;;;5021482;28;20124;-64
2021/08/18 05:14:04;;;;;;;4.20;2.80;;;;;;;;;;5023101;28;20743;-63
2021/08/18 05:16:30;;;;;;;4.18;3.25;;;;;;;;;;5020349;28;20116;-63
2021/08/18 05:18:59;;;;;;;5.35;3.30;;;;;;;;;;5022524;28;20046;-64
2021/08/18 05:21:25;;;;;;;5.82;3.15;;;;;;;;;;5024040;28;20095;-63
2021/08/18 05:23:51;;;;;;;4.53;3.25;;;;;;;;;;5024755;28;20670;-63
2021/08/18 05:26:18;;;;;;;5.30;3.40;;;;;;;;;;5020114;28;20081;-63
2021/08/18 05:28:44;;;;;;;5.28;3.30;;;;;;;;;;5022071;28;20049;-63
2021/08/18 05:31:11;;;;;;;4.68;2.97;;;;;;;;;;5023921;28;20111;-63
2021/08/18 05:33:39;;;;;;;6.75;3.05;;;;;;;;;;5022367;28;20362;-63
2021/08/18 05:36:07;;;;;;;6.90;3.60;;;;;;;;;;5022792;28;20132;-63
2021/08/18 05:38:33;;;;;;;10.77;3.42;;;;;;;;;;5025013;28;20128;-63
2021/08/18 05:41:00;;;;;;;6.20;3.45;;;;;;;;;;5021742;28;20057;-63
2021/08/18 05:43:26;;;;;;;5.45;3.22;;;;;;;;;;5017437;28;20119;-63
2021/08/18 05:45:52;;;;;;;6.22;3.30;;;;;;;;;;5019946;28;20516;-63
2021/08/18 05:48:19;;;;;;;7.15;2.80;;;;;;;;;;5022833;28;20049;-63
2021/08/18 05:50:46;;;;;;;10.07;3.72;;;;;;;;;;5023821;28;20085;-63
2021/08/18 05:53:16;;;;;;;4.35;3.05;;;;;;;;;;5025094;28;20127;-63
2021/08/18 05:55:43;;;;;;;6.20;3.42;;;;;;;;;;5020200;28;20468;-63
2021/08/18 05:58:09;;;;;;;8.52;3.25;;;;;;;;;;5023666;28;20124;-63
2021/08/18 06:00:36;;;;;;;9.52;3.55;;;;;;;;;;5021279;28;20697;-63
2021/08/18 06:03:03;;;;;;;10.15;3.88;;;;;;;;;;5022130;28;20489;-63
2021/08/18 06:05:30;;;;;;;6.15;3.35;;;;;;;;;;5022472;28;20049;-63
2021/08/18 06:07:56;;;;;;;3.97;2.90;;;;;;;;;;5022601;28;20144;-63
2021/08/18 06:10:24;;;;;;;5.90;2.97;;;;;;;;;;5015616;28;20437;-63
2021/08/18 06:12:51;;;;;;;3.42;2.40;;;;;;;;;;5021694;28;20128;-63
2021/08/18 06:15:18;;;;;;;8.95;3.13;;;;;;;;;;5018134;28;20069;-63
2021/08/18 06:17:47;;;;;;;9.27;3.60;;;;;;;;;;5021962;28;20140;-63
2021/08/18 06:20:16;;;;;;;4.53;2.83;;;;;;;;;;5022275;28;20060;-63
2021/08/18 06:22:44;;;;;;;4.20;2.58;;;;;;;;;;5023866;28;20124;-63
2021/08/18 06:25:11;;;;;;;4.00;2.50;;;;;;;;;;5020050;28;20578;-63
2021/08/18 06:27:37;;;;;;;5.65;2.30;;;;;;;;;;5026753;28;20498;-63
2021/08/18 06:30:04;;;;;;;7.65;2.40;;;;;;;;;;5025686;28;20497;-63
2021/08/18 06:32:31;;;;;;;6.60;2.55;;;;;;;;;;5024578;28;20057;-63
2021/08/18 06:34:58;;;;;;;5.57;2.38;;;;;;;;;;5023590;28;20235;-63
2021/08/18 06:37:35;;;;;;;;;;;;;;;;;;5025964;28;20052;-63
2021/08/18 06:40:03;;;;;;;5.63;2.40;;;;;;;;;;5023867;28;19976;-63
2021/08/18 06:42:30;;;;;;;4.93;2.67;;;;;;;;;;5030592;28;20072;-63
2021/08/18 06:44:56;;;;;;;3.10;2.45;;;;;;;;;;5028101;28;20145;-63
2021/08/18 06:47:23;;;;;;;6.72;2.75;;;;;;;;;;5020541;28;20077;-63
2021/08/18 06:49:50;;;;;;;7.30;2.55;;;;;;;;;;5009522;28;20060;-63
2021/08/18 06:52:16;;;;;;;2.75;2.08;;;;;;;;;;5026366;28;20128;-63
2021/08/18 06:54:43;;;;;;;5.73;2.53;;;;;;;;;;5028865;28;20076;-63
2021/08/18 06:57:09;;;;;;;3.10;2.20;;;;;;;;;;5031473;28;20076;-63
2021/08/18 06:59:36;;;;;;;7.57;2.35;;;;;;;;;;5025538;28;20103;-63
2021/08/18 07:02:02;;;;;;;5.53;1.77;;;;;;;;;;5027291;28;20148;-63
2021/08/18 07:04:30;;;;;;;4.03;2.22;;;;;;;;;;5026125;28;20533;-63
2021/08/18 07:06:57;;;;;;;4.15;2.22;;;;;;;;;;5023564;28;20124;-63
2021/08/18 07:09:23;;;;;;;4.47;2.10;;;;;;;;;;5021023;28;20136;-63
2021/08/18 07:11:50;;;;;;;4.72;2.22;;;;;;;;;;5022479;28;20046;-62
2021/08/18 07:14:16;;;;;;;4.97;2.00;;;;;;;;;;5028505;28;20144;-62
2021/08/18 07:16:43;;;;;;;5.13;2.10;;;;;;;;;;5029631;28;20087;-63
2021/08/18 07:19:09;;;;;;;2.92;2.00;;;;;;;;;;5021752;28;20383;-62
2021/08/18 07:21:36;;;;;;;9.35;2.25;;;;;;;;;;5024183;28;20140;-62
2021/08/18 07:24:03;;;;;;;5.05;2.17;;;;;;;;;;5028727;28;20132;-62
2021/08/18 07:26:29;;;;;;;3.97;2.10;;;;;;;;;;5024994;28;20148;-62
2021/08/18 07:28:56;;;;;;;6.63;2.13;;;;;;;;;;5027632;28;20133;-62
2021/08/18 07:31:23;;;;;;;3.67;2.13;;;;;;;;;;5026252;28;20131;-62
2021/08/18 07:33:50;;;;;;;10.40;2.17;;;;;;;;;;5023315;28;20517;-62
2021/08/18 07:36:17;;;;;;;3.47;1.55;;;;;;;;;;5022090;28;20081;-62
2021/08/18 07:38:43;;;;;;;4.53;1.70;;;;;;;;;;5023579;28;20136;-62
2021/08/18 07:41:10;;;;;;;3.20;1.58;;;;;;;;;;5024106;28;20534;-62
2021/08/18 07:43:36;;;;;;;4.13;2.00;;;;;;;;;;5024823;28;20727;-62
2021/08/18 07:46:03;;;;;;;2.50;1.80;;;;;;;;;;5026094;28;20140;-62
2021/08/18 07:48:31;;;;;;;5.40;2.15;;;;;;;;;;5028505;28;20103;-62
2021/08/18 07:50:57;;;;;;;;;;;;;;;;;;5021706;28;20569;-62
2021/08/18 07:53:24;;;;;;;4.60;1.85;;;;;;;;;;5027457;28;19929;-62
2021/08/18 07:55:50;;;;;;;7.43;2.00;;;;;;;;;;5024650;28;20088;-62
2021/08/18 07:58:19;;;;;;;2.70;1.50;;;;;;;;;;5026451;28;20061;-62
2021/08/18 08:00:46;;;;;;;7.13;1.73;;;;;;;;;;5019828;28;20572;-62
2021/08/18 08:03:13;;;;;;;4.72;2.10;;;;;;;;;;5023537;28;20058;-62
2021/08/18 08:05:39;;;;;;;5.05;1.73;;;;;;;;;;5025700;28;20156;-62
2021/08/18 08:08:06;;;;;;;5.75;1.65;;;;;;;;;;5024539;28;20076;-62
2021/08/18 08:10:33;;;;;;;2.15;1.55;;;;;;;;;;5027751;28;20509;-62
2021/08/18 08:12:59;;;;;;;6.30;2.05;;;;;;;;;;5023731;28;20055;-62
2021/08/18 08:15:26;;;;;;;2.33;1.67;;;;;;;;;;5029292;28;20533;-62
2021/08/18 08:17:52;;;;;;;6.65;1.83;;;;;;;;;;5019894;28;20352;-62
2021/08/18 08:20:19;;;;;;;4.60;1.80;;;;;;;;;;5025916;28;20081;-62
2021/08/18 08:22:46;;;;;;;5.35;1.88;;;;;;;;;;5026014;28;20128;-62
2021/08/18 08:25:13;;;;;;;5.53;1.83;;;;;;;;;;5023360;28;20053;-63
2021/08/18 08:27:39;;;;;;;3.83;1.40;;;;;;;;;;5024122;28;20124;-63
2021/08/18 08:30:06;;;;;;;4.53;1.67;;;;;;;;;;5015090;28;20059;-62
2021/08/18 08:32:35;;;;;;;3.03;1.93;;;;;;;;;;5023492;28;20132;-62
2021/08/18 08:35:01;;;;;;;3.17;1.48;;;;;;;;;;5023336;28;20104;-62
2021/08/18 08:37:28;;;;;;;2.83;1.58;;;;;;;;;;5022361;28;20100;-63
2021/08/18 08:39:54;;;;;;;3.35;1.73;;;;;;;;;;5025983;28;20045;-63
2021/08/18 08:42:21;;;;;;;4.30;1.50;;;;;;;;;;5026184;28;20136;-63
2021/08/18 08:44:50;;;;;;;3.85;1.50;;;;;;;;;;5027380;28;20045;-63
2021/08/18 08:47:18;;;;;;;4.68;1.45;;;;;;;;;;5021863;28;20141;-63
2021/08/18 08:49:44;;;;;;;5.90;1.55;;;;;;;;;;5009201;28;20077;-63
2021/08/18 08:52:12;;;;;;;3.13;1.55;;;;;;;;;;5017939;28;20053;-63
2021/08/18 08:54:39;;;;;;;2.45;1.60;;;;;;;;;;5023731;28;20593;-63
2021/08/18 08:57:05;;;;;;;5.93;1.70;;;;;;;;;;5023019;28;20093;-63
2021/08/18 08:59:34;;;;;;;3.05;1.55;;;;;;;;;;5025781;28;20128;-63
2021/08/18 09:02:02;;;;;;;2.87;1.50;;;;;;;;;;5025444;28;20048;-63
2021/08/18 09:04:30;;;;;;;4.30;1.90;;;;;;;;;;5026770;28;20859;-63
2021/08/18 09:07:21;;;;;;;2.83;1.38;;;;;;;;;;5020083;28;20468;-63
2021/08/18 09:09:52;;;;;;;2.40;1.58;;;;;;;;;;5013413;28;20077;-63
2021/08/18 09:12:19;;;;;;;3.95;1.55;;;;;;;;;;5021005;28;20087;-63
2021/08/18 09:14:45;;;;;;;4.07;1.73;;;;;;;;;;5023108;28;20460;-63
2021/08/18 09:17:31;;;;;;;5.20;1.50;;;;;;;;;;5025433;28;20042;-63
2021/08/18 09:19:58;;;;;;;5.13;1.70;;;;;;;;;;5023284;28;20128;-64
2021/08/18 09:22:24;;;;;;;3.57;1.70;;;;;;;;;;5022661;28;20509;-63
2021/08/18 09:25:06;;;;;;;8.00;1.60;;;;;;;;;;5019943;28;20073;-64
2021/08/18 09:27:33;;;;;;;2.80;1.40;;;;;;;;;;5021519;28;20073;-64
2021/08/18 09:29:59;;;;;;;2.63;1.30;;;;;;;;;;5021840;28;20049;-64
2021/08/18 09:32:26;;;;;;;2.33;1.40;;;;;;;;;;5025390;28;20129;-64
2021/08/18 09:35:02;;;;;;;2.05;1.42;;;;;;;;;;5020906;28;20523;-64
2021/08/18 09:37:31;;;;;;;2.67;1.20;;;;;;;;;;5024891;28;20463;-64
2021/08/18 09:39:58;;;;;;;2.67;1.42;;;;;;;;;;5021390;28;20049;-64
2021/08/18 09:42:32;;;;;;;2.53;1.30;;;;;;;;;;5024612;28;20054;-64
2021/08/18 09:45:09;;;;;;;2.72;1.40;;;;;;;;;;5026831;28;20140;-64
2021/08/18 09:47:49;;;;;;;2.88;1.65;;;;;;;;;;5026921;28;20068;-65
2021/08/18 09:50:17;;;;;;;4.10;1.33;;;;;;;;;;5023783;28;20081;-65
2021/08/18 09:52:44;;;;;;;1.65;1.35;;;;;;;;;;5023415;28;20091;-64
2021/08/18 09:55:11;;;;;;;7.75;1.45;;;;;;;;;;5024251;28;20111;-65
2021/08/18 09:57:38;;;;;;;3.95;1.60;;;;;;;;;;5015242;28;20128;-64
2021/08/18 10:00:06;;;;;;;3.58;1.30;;;;;;;;;;5019180;28;20054;-64
2021/08/18 10:02:33;;;;;;;2.85;1.30;;;;;;;;;;5022540;28;20052;-64
2021/08/18 10:05:02;;;;;;;1.20;1.10;;;;;;;;;;5024898;28;20050;-64
2021/08/18 10:07:33;;;;;;;2.42;1.50;;;;;;;;;;5023120;28;20049;-64
2021/08/18 10:10:02;;;;;;;1.15;0.93;;;;;;;;;;5017814;28;20053;-64
2021/08/18 10:12:30;;;;;;;3.20;1.38;;;;;;;;;;5023565;28;20470;-64
2021/08/18 10:15:01;;;;;;;2.95;1.50;;;;;;;;;;5017254;28;20084;-64
2021/08/18 10:17:31;;;;;;;3.28;1.25;;;;;;;;;;5026406;28;20049;-64
2021/08/18 10:19:58;;;;;;;2.42;1.20;;;;;;;;;;5022888;28;20081;-64
2021/08/18 10:22:28;;;;;;;2.53;1.35;;;;;;;;;;5023721;28;20605;-64
2021/08/18 10:24:55;;;;;;;4.13;1.30;;;;;;;;;;5026767;28;20107;-64
2021/08/18 10:27:40;;;;;;;1.95;1.33;;;;;;;;;;5019674;28;20056;-64
2021/08/18 10:30:19;;;;;;;2.40;1.40;;;;;;;;;;5023616;28;20053;-65
2021/08/18 10:32:46;;;;;;;3.15;1.30;;;;;;;;;;5023920;28;20630;-64
2021/08/18 10:35:45;;;;;;;1.92;1.38;;;;;;;;;;5024428;28;20105;-64
2021/08/18 10:38:23;;;;;;;2.10;1.45;;;;;;;;;;5014558;28;20105;-64
2021/08/18 10:40:52;;;;;;;2.25;1.17;;;;;;;;;;5025704;28;20551;-64
2021/08/18 10:43:38;;;;;;;3.30;1.50;;;;;;;;;;5021268;28;20176;-64
2021/08/18 10:46:05;;;;;;;4.50;1.95;;;;;;;;;;5024663;28;20529;-64
2021/08/18 10:48:50;;;;;;;4.00;1.70;;;;;;;;;;5021794;28;20065;-64
2021/08/18 10:51:35;;;;;;;4.22;1.90;;;;;;;;;;5019501;28;20376;-64
2021/08/18 10:54:21;;;;;;;5.03;2.28;;;;;;;;;;5019118;28;20133;-64
2021/08/18 10:56:48;;;;;;;4.40;1.88;;;;;;;;;;5023250;28;20132;-64
2021/08/18 10:59:15;;;;;;;;;;;;;;;;;;5016906;28;20089;-64
2021/08/18 11:01:42;;;;;;;12.70;2.83;;;;;;;;;;5023657;28;20392;-64
2021/08/18 11:04:34;;;;;;;6.00;2.25;;;;;;;;;;5021216;28;20045;-64
2021/08/18 11:07:01;;;;;;;5.00;2.10;;;;;;;;;;5019235;28;20077;-64
2021/08/18 11:09:46;;;;;;;4.13;2.00;;;;;;;;;;5021401;28;20081;-64
2021/08/18 11:12:32;;;;;;;7.95;3.00;;;;;;;;;;5017842;28;20056;-64
2021/08/18 11:14:59;;;;;;;6.63;2.70;;;;;;;;;;5024471;28;20081;-64
2021/08/18 11:17:25;;;;;;;6.47;2.50;;;;;;;;;;5024548;28;20133;-64
2021/08/18 11:19:53;;;;;;;6.80;2.40;;;;;;;;;;5022650;28;20501;-63
2021/08/18 11:22:19;;;;;;;;;;;;;;;;;;5026380;28;20092;-64
2021/08/18 11:24:46;;;;;;;9.90;3.00;;;;;;;;;;5025454;28;20022;-64
2021/08/18 11:27:16;;;;;;;7.75;2.90;;;;;;;;;;5027426;28;20045;-64
2021/08/18 11:29:43;;;;;;;7.50;3.38;;;;;;;;;;5025582;28;20124;-64
2021/08/18 11:32:10;;;;;;;7.80;2.95;;;;;;;;;;5023187;28;20081;-63
2021/08/18 11:34:37;;;;;;;6.32;2.83;;;;;;;;;;5021405;28;20073;-64
2021/08/18 11:37:05;;;;;;;12.90;3.22;;;;;;;;;;5026257;28;20081;-64
2021/08/18 11:39:34;;;;;;;7.63;3.10;;;;;;;;;;5022365;28;20585;-64
2021/08/18 11:42:20;;;;;;;8.02;2.70;;;;;;;;;;5024363;28;20073;-64
2021/08/18 11:44:48;;;;;;;11.80;3.30;;;;;;;;;;5026243;28;20076;-64
2021/08/18 11:47:15;;;;;;;7.00;3.00;;;;;;;;;;5024710;28;20049;-64
2021/08/18 11:49:45;;;;;;;10.07;2.78;;;;;;;;;;5021063;28;20489;-64
2021/08/18 11:52:16;;;;;;;10.65;3.30;;;;;;;;;;5025364;28;20060;-63
2021/08/18 11:54:50;;;;;;;9.82;2.70;;;;;;;;;;5022765;28;20120;-64
2021/08/18 11:57:18;;;;;;;11.43;3.17;;;;;;;;;;5018759;28;20079;-63
2021/08/18 11:59:49;;;;;;;9.55;2.65;;;;;;;;;;5023981;28;20463;-63
2021/08/18 12:02:15;;;;;;;7.40;2.70;;;;;;;;;;5024895;28;20049;-63
2021/08/18 12:04:43;;;;;;;11.75;3.55;;;;;;;;;;5022687;28;20049;-63
2021/08/18 12:07:17;;;;;;;12.27;3.10;;;;;;;;;;5025508;28;20128;-63
2021/08/18 12:09:45;;;;;;;12.02;3.33;;;;;;;;;;5026719;28;20121;-63
2021/08/18 12:12:22;;;;;;;12.30;3.63;;;;;;;;;;5026963;28;20045;-63
2021/08/18 12:14:49;;;;;;;8.23;2.97;;;;;;;;;;5026344;28;20120;-64
2021/08/18 12:17:16;;;;;;;;;;;;;;;;;;5020114;28;20092;-63
2021/08/18 12:19:43;;;;;;;9.60;3.15;;;;;;;;;;5022501;28;19960;-63
2021/08/18 12:22:14;;;;;;;12.45;3.33;;;;;;;;;;5023736;28;20088;-64
2021/08/18 12:24:42;;;;;;;12.30;3.28;;;;;;;;;;5026054;28;20088;-64
2021/08/18 12:27:09;;;;;;;10.10;2.97;;;;;;;;;;5023781;28;20099;-64
2021/08/18 12:29:37;;;;;;;12.18;3.38;;;;;;;;;;5022767;28;20116;-63
2021/08/18 12:32:05;;;;;;;10.60;3.30;;;;;;;;;;5019598;28;20085;-63
2021/08/18 12:34:35;;;;;;;8.52;3.38;;;;;;;;;;5023322;28;20056;-64
2021/08/18 12:37:03;;;;;;;7.50;2.75;;;;;;;;;;5022722;28;20045;-64
2021/08/18 12:39:34;;;;;;;8.05;2.88;;;;;;;;;;5020680;28;20092;-63
2021/08/18 12:42:01;;;;;;;11.73;3.20;;;;;;;;;;5022373;28;20517;-64
2021/08/18 12:44:30;;;;;;;14.35;3.25;;;;;;;;;;5027398;28;20140;-64
2021/08/18 12:47:03;;;;;;;12.80;3.30;;;;;;;;;;5020217;28;20088;-63
2021/08/18 12:49:31;;;;;;;9.93;2.88;;;;;;;;;;5023061;28;20049;-64
2021/08/18 12:51:58;;;;;;;9.13;3.08;;;;;;;;;;5023425;28;20144;-64
2021/08/18 12:54:25;;;;;;;10.60;3.35;;;;;;;;;;5024457;28;20073;-63
2021/08/18 12:56:53;;;;;;;11.35;3.47;;;;;;;;;;5025231;28;20077;-63
2021/08/18 12:59:19;;;;;;;;;;;;;;;;;;5023238;28;20088;-63
2021/08/18 13:01:46;;;;;;;8.98;3.13;;;;;;;;;;5021724;28;20464;-64
2021/08/18 13:04:13;;;;;;;7.40;3.17;;;;;;;;;;5021081;28;20527;-63
2021/08/18 13:06:39;;;;;;;9.88;3.53;;;;;;;;;;5021418;28;20142;-63
2021/08/18 13:09:06;;;;;;;10.60;3.33;;;;;;;;;;5024156;28;20129;-64
2021/08/18 13:11:33;;;;;;;7.93;3.00;;;;;;;;;;5028002;28;20103;-64
2021/08/18 13:13:59;;;;;;;6.03;3.45;;;;;;;;;;5023643;28;20066;-63
2021/08/18 13:16:26;;;;;;;10.80;3.10;;;;;;;;;;5024396;28;20154;-63
2021/08/18 13:18:53;;;;;;;6.30;3.20;;;;;;;;;;5024863;28;20054;-64
2021/08/18 13:21:19;;;;;;;9.20;3.30;;;;;;;;;;5020533;28;20080;-63
2021/08/18 13:23:46;;;;;;;8.35;3.05;;;;;;;;;;5020215;28;20140;-64
2021/08/18 13:26:12;;;;;;;7.43;2.72;;;;;;;;;;5024008;28;20142;-63
2021/08/18 13:28:40;;;;;;;7.38;3.80;;;;;;;;;;5021315;28;20137;-64
2021/08/18 13:31:06;;;;;;;;;;;;;;;;;;5025920;28;20136;-63
2021/08/18 13:33:33;;;;;;;11.57;3.17;;;;;;;;;;5023458;28;20296;-63
2021/08/18 13:36:00;;;;;;;12.43;3.35;;;;;;;;;;5020276;28;20077;-64
2021/08/18 13:38:29;;;;;;;8.52;3.40;;;;;;;;;;5021033;28;20099;-63
2021/08/18 13:40:56;;;;;;;7.53;3.10;;;;;;;;;;5019181;28;20059;-63
2021/08/18 13:43:22;;;;;;;5.65;2.83;;;;;;;;;;5020257;28;20621;-63
2021/08/18 13:45:49;;;;;;;9.50;3.30;;;;;;;;;;5021259;28;20454;-63
2021/08/18 13:48:15;;;;;;;7.68;3.40;;;;;;;;;;5015300;28;20056;-63
2021/08/18 13:50:42;;;;;;;7.53;2.97;;;;;;;;;;5023743;28;20453;-64
2021/08/18 13:53:08;;;;;;;7.28;3.28;;;;;;;;;;5019747;28;22350;-64
2021/08/18 13:55:35;;;;;;;7.63;2.90;;;;;;;;;;5025538;28;20049;-64
2021/08/18 13:58:01;;;;;;;4.50;2.30;;;;;;;;;;5022850;28;20391;-63
2021/08/18 14:00:29;;;;;;;7.65;3.20;;;;;;;;;;5022139;28;20073;-64
2021/08/18 14:02:56;;;;;;;7.45;3.00;;;;;;;;;;5026619;28;20509;-64
2021/08/18 14:05:24;;;;;;;7.95;3.00;;;;;;;;;;5016653;28;20099;-64
2021/08/18 14:07:50;;;;;;;9.82;2.75;;;;;;;;;;5021081;28;20141;-63
2021/08/18 14:10:19;;;;;;;7.75;3.35;;;;;;;;;;5023113;28;20053;-63
2021/08/18 14:12:46;;;;;;;4.70;2.60;;;;;;;;;;5021687;28;20077;-64
2021/08/18 14:15:12;;;;;;;7.35;2.63;;;;;;;;;;5021446;28;20493;-63
2021/08/18 14:17:40;;;;;;;5.40;2.90;;;;;;;;;;5021951;28;20073;-63
2021/08/18 14:20:07;;;;;;;5.65;2.47;;;;;;;;;;5021469;28;20129;-63
2021/08/18 14:22:33;;;;;;;4.65;2.70;;;;;;;;;;5022939;28;20137;-63
2021/08/18 14:25:00;;;;;;;6.83;2.97;;;;;;;;;;5019168;28;20410;-63
2021/08/18 14:27:26;;;;;;;4.53;2.70;;;;;;;;;;5020847;28;20137;-63
2021/08/18 14:29:53;;;;;;;9.90;2.70;;;;;;;;;;5018390;28;20073;-64
2021/08/18 14:32:19;;;;;;;4.77;2.83;;;;;;;;;;5020241;28;20091;-63
2021/08/18 14:34:46;;;;;;;6.28;2.63;;;;;;;;;;5018981;28;20084;-64
2021/08/18 14:37:12;;;;;;;7.65;2.70;;;;;;;;;;5023150;28;20096;-63
2021/08/18 14:39:39;;;;;;;13.73;3.30;;;;;;;;;;5021528;28;20085;-63
2021/08/18 14:42:05;;;;;;;8.48;2.70;;;;;;;;;;5021980;28;20192;-63
2021/08/18 14:44:32;;;;;;;6.28;2.95;;;;;;;;;;5023222;28;20490;-64
2021/08/18 14:46:58;;;;;;;7.97;2.78;;;;;;;;;;5025742;28;20133;-63